• Join FlightAware (Why Join?)
  • Login
  • US Flag GB Flag 
08:16 EST


 

Airport Tracker/Info


-or-


 

Live Flight TrackerFlight Track Log ✈ DAL268 ✈ 25-May-2013 ✈ KJFK - LLBG / TLV

Flight Track Log - Related Links

Times and Time Zones

All times are in EDT time to prevent confusion due to time zone crossing. See the DAL268 flight status page for this flight to view local times or setup timezone preferences in your user account.

Time Position Orientation Groundspeed Altitude Reporting Facility
EDT Latitude Longitude Course Direction KTS MPH feet Rate Location/Type
01:02 40.6370 -73.7790 North 10 12  Level FlightAware
01:02 40.6380 -73.7790 360° North 9 10 60 Level FlightAware
01:03 40.6370 -73.7790 180° South 11 13 60 Level FlightAware
01:05 40.6360 -73.7790 180° South 60 Level FlightAware
01:07 40.6000 -73.5552 90° East  Level FlightAware Approximate
01:08 40.5947 -73.4289 108° East  Level FlightAware Approximate
01:09 40.5833 -73.3038 90° East  Level FlightAware Approximate
01:09 40.6360 -73.7780 90° East 16 18  Level FlightAware
01:10 40.6340 -73.7790 201° Southwest 21 24 120 Level FlightAware
01:10 40.6330 -73.7780 143° Southeast 23 26 120 Level FlightAware
01:11 40.6320 -73.7760 123° Southeast 34 39 180 Level FlightAware
01:12 40.6310 -73.7730 114° Southeast 28 32 180 Level FlightAware
01:12 40.6300 -73.7710 123° Southeast 20 23 240 Level FlightAware
01:13 40.6280 -73.7720 201° Southwest 17 20 360 Level FlightAware
01:14 40.6290 -73.7740 303° West 45 52 480 Level FlightAware
01:14 40.6340 -73.7840 303° West 125 144 900 Level FlightAware
01:15 40.6450 -73.8100 299° West 157 181 800 1,860 Climbing FlightAware
01:15 40.6480 -73.8190 294° West 160 184 1,300 1,440 Climbing FlightAware
01:15 40.6480 -73.8250 270° West 169 194 1,400 1,380 Climbing FlightAware
01:15 40.6290 -73.8680 240° Southwest 231 266 2,400 1,500 Climbing FlightAware
01:16 40.6060 -73.8960 223° Southwest 266 306 2,900 1,020 Climbing FlightAware
01:16 40.5920 -73.9040 203° Southwest 288 331 3,100 1,740 Climbing FlightAware
01:17 40.5280 -73.8775 163° South 322 371 4,700 1,980 Climbing FlightAware ADS-B
01:17 40.5233 -73.8701 130° Southeast 321 369 4,900 2,640 Climbing FlightAware ADS-B
01:17 40.5199 -73.8638 125° Southeast 320 368 5,100 2,640 Climbing FlightAware ADS-B
01:17 40.5161 -73.8556 121° Southeast 319 367 5,300 2,220 Climbing FlightAware ADS-B
01:17 40.5143 -73.8503 114° Southeast 318 366 5,400 2,640 Climbing FlightAware ADS-B
01:17 40.5114 -73.8394 109° East 317 365 5,700 2,640 Climbing FlightAware ADS-B
01:17 40.5103 -73.8319 101° East 317 365 5,800 1,980 Climbing FlightAware ADS-B
01:17 40.5096 -73.8261 99° East 317 365 5,900 1,500 Climbing FlightAware ADS-B
01:18 40.5092 -73.8186 94° East 315 362 6,000 2,220 Climbing FlightAware ADS-B
01:18 40.5094 -73.8108 88° East 313 360 6,200 3,420 Climbing FlightAware ADS-B
01:18 40.5101 -73.8033 83° East 310 357 6,400 2,220 Climbing FlightAware ADS-B
01:18 40.5113 -73.7960 78° East 308 354 6,500 2,220 Climbing FlightAware ADS-B
01:18 40.5129 -73.7889 73° East 305 351 6,700 2,700 Climbing FlightAware ADS-B
01:18 40.5164 -73.7769 69° East 302 348 7,000 2,760 Climbing FlightAware ADS-B
01:18 40.5204 -73.7672 62° Northeast 299 344 7,300 2,520 Climbing FlightAware ADS-B
01:18 40.5299 -73.7474 58° Northeast 298 343 7,800 2,280 Climbing FlightAware ADS-B
01:18 40.5333 -73.7394 61° Northeast 301 346 8,000 2,640 Climbing FlightAware ADS-B
01:18 40.5359 -73.7328 63° Northeast 303 349 8,200 2,760 Climbing FlightAware ADS-B
01:19 40.5409 -73.7173 67° East 310 357 8,600 2,820 Climbing FlightAware ADS-B
01:19 40.5447 -73.7027 71° East 316 364 9,000 2,520 Climbing FlightAware ADS-B
01:19 40.5466 -73.6932 75° East 321 369 9,200 2,760 Climbing FlightAware ADS-B
01:19 40.5488 -73.6757 81° East 327 376 9,700 2,760 Climbing FlightAware ADS-B
01:19 40.5495 -73.6638 86° East 331 381 9,900 1,980 Climbing FlightAware ADS-B
01:20 40.5509 -73.6018 88° East 349 402 10,900 1,680 Climbing FlightAware ADS-B
01:20 40.5518 -73.5338 89° East 372 428 11,600 1,260 Climbing FlightAware ADS-B
01:21 40.5529 -73.4636 89° East 396 456 12,200 1,320 Climbing FlightAware ADS-B
01:21 40.5540 -73.3868 89° East 416 479 13,000 1,800 Climbing FlightAware ADS-B
01:22 40.5551 -73.3075 89° East 425 489 14,100 1,920 Climbing FlightAware ADS-B
01:22 40.5563 -73.2287 89° East 436 502 15,000 1,920 Climbing FlightAware ADS-B
01:22 40.5574 -73.1781 88° East 441 507 15,700 1,800 Climbing FlightAware ADS-B
01:23 40.5615 -73.1437 81° East 440 506 16,000 1,380 Climbing FlightAware ADS-B
01:23 40.5664 -73.1232 73° East 440 506 16,200 2,160 Climbing FlightAware ADS-B
01:23 40.5787 -73.0872 66° East 435 501 16,800 2,220 Climbing FlightAware ADS-B
01:23 40.5894 -73.0676 54° Northeast 431 496 17,100 2,100 Climbing FlightAware ADS-B
01:23 40.5983 -73.0536 50° Northeast 428 493 17,400 1,920 Climbing FlightAware ADS-B
01:24 40.6443 -73.0023 40° Northeast 424 488 18,300 1,860 Climbing FlightAware ADS-B
01:24 40.6908 -72.9539 38° Northeast 428 493 19,300 1,860 Climbing FlightAware ADS-B
01:25 40.7394 -72.9042 38° Northeast 433 498 20,200 1,740 Climbing FlightAware ADS-B
01:25 40.7886 -72.8534 38° Northeast 437 503 21,100 1,740 Climbing FlightAware ADS-B
01:26 40.8378 -72.8038 37° Northeast 441 507 22,000 1,560 Climbing FlightAware ADS-B
01:26 40.8865 -72.7517 39° Northeast 446 513 22,700 1,860 Climbing FlightAware ADS-B
01:27 40.9360 -72.7006 38° Northeast 441 507 23,900 2,160 Climbing FlightAware ADS-B
01:28 41.0047 -72.6287 38° Northeast 430 495 25,400 1,440 Climbing FlightAware ADS-B
01:28 41.0589 -72.5719 38° Northeast 437 503 25,800 840 Climbing FlightAware ADS-B
01:29 41.1081 -72.5204 38° Northeast 452 520 26,300 780 Climbing FlightAware ADS-B
01:29 41.1710 -72.4540 38° Northeast 464 534 26,700 600 Climbing FlightAware
01:30 41.2221 -72.3997 39° Northeast 455 524 27,000 660 Climbing FlightAware ADS-B
01:31 41.3150 -72.3020 38° Northeast 486 559 27,700 840 Climbing FlightAware
01:31 41.3860 -72.2270 38° Northeast 493 567 28,400 960 Climbing FlightAware
01:32 41.4580 -72.1500 39° Northeast 497 572 29,000 900 Climbing FlightAware
01:33 41.5390 -72.0640 38° Northeast 502 578 29,700 840 Climbing FlightAware
01:33 41.6100 -71.9870 39° Northeast 507 583 30,200 840 Climbing FlightAware
01:34 41.6920 -71.8980 39° Northeast 510 587 30,900 540 Climbing FlightAware
01:35 41.7680 -71.8170 38° Northeast 509 586 31,000 60 Climbing FlightAware
01:36 41.8510 -71.7280 39° Northeast 508 585 31,000  Level FlightAware
01:36 41.9250 -71.6480 39° Northeast 507 583 31,000  Level FlightAware
01:37 41.9960 -71.5690 40° Northeast 508 585 31,000  Level FlightAware
01:38 42.0790 -71.4790 39° Northeast 511 588 31,000  Level FlightAware
01:38 42.1550 -71.3960 39° Northeast 513 590 31,000  Level FlightAware
01:39 42.2220 -71.3210 40° Northeast 515 593 31,000  Level FlightAware
01:40 42.3090 -71.2240 39° Northeast 516 594 31,000  Level FlightAware
01:40 42.3820 -71.1410 40° Northeast 516 594 31,000  Level FlightAware
01:41 42.4650 -71.0480 40° Northeast 516 594 31,000  Level FlightAware
01:42 42.5450 -70.9560 40° Northeast 518 596 31,000  Level FlightAware
01:43 42.6250 -70.8660 40° Northeast 519 597 31,000  Level FlightAware
01:43 42.6960 -70.7870 39° Northeast 521 600 31,000  Level FlightAware
01:44 42.7800 -70.6890 41° Northeast 523 602 31,000  Level FlightAware
01:45 42.8550 -70.6040 40° Northeast 524 603 31,000  Level FlightAware
01:46 42.9010 -70.5490 41° Northeast 522 601 31,000  Level FlightAware
01:46 43.0310 -70.4020 40° Northeast 524 603 31,000  Level FlightAware
01:47 43.1050 -70.3130 41° Northeast 524 603 31,000  Level FlightAware
01:48 43.1910 -70.2140 40° Northeast 525 604 31,000  Level FlightAware
01:48 43.2730 -70.1170 41° Northeast 525 604 31,000  Level FlightAware
01:49 43.3320 -70.0480 40° Northeast 526 605 31,000  Level FlightAware
01:51 43.4950 -69.8560 40° Northeast 524 603 31,000  Level FlightAware
01:51 43.5970 -69.7370 40° Northeast 524 603 31,000  Level FlightAware
01:52 43.6800 -69.6380 41° Northeast 524 603 31,000  Level FlightAware
01:53 43.7590 -69.5430 41° Northeast 524 603 31,000  Level FlightAware
01:54 43.8350 -69.4550 40° Northeast 524 603 31,000  Level FlightAware
01:55 43.9690 -69.2900 42° Northeast 527 606 31,000  Level FlightAware
01:56 44.0440 -69.1990 41° Northeast 527 606 31,000  Level FlightAware
01:56 44.1190 -69.1080 41° Northeast 527 606 31,000  Level FlightAware
01:57 44.2050 -69.0030 41° Northeast 529 609 31,000  Level FlightAware
01:58 44.2750 -68.9170 41° Northeast 528 608 31,000  Level FlightAware
01:58 44.3680 -68.8030 41° Northeast 527 606 31,000  Level FlightAware
01:59 44.4480 -68.7040 41° Northeast 525 604 31,000  Level FlightAware
02:00 44.5220 -68.6130 41° Northeast 524 603 31,000  Level FlightAware
02:00 44.5980 -68.5190 41° Northeast 524 603 31,000  Level FlightAware
02:01 44.6790 -68.4170 42° Northeast 528 608 31,000  Level FlightAware
02:02 44.7510 -68.3270 42° Northeast 529 609 31,000  Level FlightAware
02:03 44.8300 -68.2260 42° Northeast 531 611 31,000  Level FlightAware
02:03 44.9050 -68.1310 42° Northeast 533 613 31,000  Level FlightAware
02:04 44.9850 -68.0310 41° Northeast 532 612 31,000  Level FlightAware
02:05 45.0510 -67.9480 42° Northeast 530 610 31,000  Level FlightAware
02:05 45.1410 -67.8320 42° Northeast 531 611 31,000  Level FlightAware
02:06 45.2090 -67.7460 42° Northeast 531 611 31,000  Level FlightAware
02:07 45.2860 -67.6470 42° Northeast 529 609 31,000  Level FlightAware
02:07 45.3680 -67.5390 43° Northeast 532 612 31,000  Level FlightAware
02:08 45.4340 -67.4530 42° Northeast 542 624 31,000  Level FlightAware
02:09 45.5170 -67.3470 42° Northeast 545 627 31,000  Level FlightAware
02:10 45.6030 -67.2350 42° Northeast 547 629 31,000  Level FlightAware
02:10 45.6750 -67.1400 43° Northeast 547 629 31,000  Level FlightAware
02:11 45.7580 -67.0300 43° Northeast 548 631 31,000  Level FlightAware
02:12 45.8340 -66.9310 42° Northeast 548 631 31,000  Level FlightAware
02:12 45.9100 -66.8300 43° Northeast 548 631 31,000  Level FlightAware
02:13 45.9820 -66.7330 43° Northeast 550 633 31,000  Level FlightAware
02:14 46.0610 -66.6280 43° Northeast 549 632 31,000  Level FlightAware
02:14 46.1380 -66.5240 43° Northeast 549 632 31,000  Level FlightAware
02:15 46.2200 -66.4140 43° Northeast 548 631 31,000  Level FlightAware
02:16 46.2970 -66.3110 43° Northeast 548 631 31,000  Level FlightAware
02:17 46.3550 -66.2320 43° Northeast 548 631 31,000  Level FlightAware
02:18 46.4510 -66.1020 43° Northeast 548 631 31,000  Level FlightAware
02:18 46.5080 -66.0250 43° Northeast 548 631 31,000  Level FlightAware
02:19 46.5830 -65.9230 43° Northeast 548 631 31,000  Level FlightAware
02:20 46.6400 -65.8450 43° Northeast 548 631 31,000  Level FlightAware
02:20 46.7090 -65.7510 43° Northeast 548 631 31,000  Level FlightAware
02:21 46.7680 -65.6720 43° Northeast 548 631 31,000  Level FlightAware
02:22 46.8430 -65.5690 43° Northeast 548 631 31,000  Level FlightAware
02:22 46.9020 -65.4890 43° Northeast 548 631 31,000  Level FlightAware
02:23 46.9770 -65.3860 43° Northeast 548 631 31,000  Level FlightAware
02:24 47.0340 -65.3080 43° Northeast 548 631 31,000  Level FlightAware
02:25 47.1100 -65.2050 43° Northeast 548 631 31,000  Level FlightAware
02:30 47.6489 -64.4493 43° Northeast  Level FlightAware Approximate
02:31 47.7565 -64.2957 44° Northeast  Level FlightAware Approximate
02:32 47.8626 -64.1398 45° Northeast  Level FlightAware Approximate
02:33 47.9678 -63.9820 45° Northeast  Level FlightAware Approximate
02:33 48.1500 -63.6333 46° Northeast 540 621 31,000  Level Gander Center
02:34 48.0727 -63.8235 45° Northeast  Level FlightAware Approximate
02:34 48.2333 -63.5167 43° Northeast 550 633 31,000  Level Moncton Center
02:35 48.1774 -63.6644 45° Northeast  Level FlightAware Approximate
02:35 48.3333 -63.3333 51° Northeast 550 633 31,000  Level Moncton Center
02:36 48.2819 -63.5047 45° Northeast  Level FlightAware Approximate
02:36 48.4500 -63.1833 40° Northeast 550 633 31,000  Level Moncton Center
02:37 48.3860 -63.3441 46° Northeast  Level FlightAware Approximate
02:37 48.5500 -63.0333 45° Northeast 550 633 31,000  Level Moncton Center
02:38 48.4898 -63.1826 46° Northeast  Level FlightAware Approximate
02:38 48.6667 -62.8500 46° Northeast 540 621 31,000  Level Moncton Center
02:39 48.5933 -63.0205 46° Northeast  Level FlightAware Approximate
02:39 48.7667 -62.7000 45° Northeast 550 633 31,000  Level Moncton Center
02:40 48.8667 -62.5167 50° Northeast 550 633 31,000  Level Moncton Center
02:41 48.9667 -62.3500 48° Northeast 540 621 31,000  Level Moncton Center
02:42 49.0833 -62.2000 40° Northeast 550 633 31,000  Level Moncton Center
02:43 49.2000 -62.0167 46° Northeast 550 633 31,000  Level Moncton Center
02:44 49.3000 -61.8333 50° Northeast 550 633 31,000  Level Moncton Center
02:45 49.4000 -61.6667 47° Northeast 540 621 31,000  Level Moncton Center
02:46 49.4833 -61.5167 49° Northeast 550 633 31,000  Level Moncton Center
02:47 49.6000 -61.3167 48° Northeast 550 633 31,000  Level Moncton Center
02:48 49.7167 -61.1667 40° Northeast 550 633 31,000 120 Level Moncton Center
02:49 49.8167 -60.9667 52° Northeast 550 633 31,300 720 Climbing Moncton Center
02:50 49.9167 -60.8000 47° Northeast 550 633 32,500 840 Climbing Moncton Center
02:51 50.0333 -60.6167 45° Northeast 550 633 33,000 240 Climbing Moncton Center
02:52 50.1333 -60.4500 47° Northeast 550 633 33,000  Level Moncton Center
02:53 50.2167 -60.2833 52° Northeast 550 633 33,000  Level Moncton Center
02:54 50.3333 -60.1000 45° Northeast 550 633 33,000  Level Moncton Center
02:55 50.4500 -59.9000 47° Northeast 550 633 33,000  Level Moncton Center
02:56 50.5333 -59.7333 52° Northeast 550 633 33,000  Level Moncton Center
02:57 50.6333 -59.5667 47° Northeast 560 644 33,000  Level Moncton Center
02:58 50.7333 -59.3667 52° Northeast 560 644 33,000  Level Moncton Center
02:59 50.8500 -59.2000 42° Northeast 550 633 33,000  Level Moncton Center
03:00 50.9667 -59.0000 47° Northeast 550 633 33,000  Level Moncton Center
03:01 51.0500 -58.8333 51° Northeast 560 644 33,000  Level Moncton Center
03:01 51.0833 -58.7833 43° Northeast 560 644 33,000  Level Gander Center
03:02 51.1500 -58.6500 51° Northeast 560 644 33,000  Level Gander Center
03:03 51.2500 -58.4833 46° Northeast 550 633 33,000  Level Gander Center
03:04 51.3333 -58.2833 56° Northeast 560 644 33,000  Level Gander Center
03:05 51.4333 -58.0667 53° Northeast 560 644 33,000  Level Gander Center
03:06 51.5167 -57.8667 56° Northeast 560 644 33,000  Level Gander Center
03:07 51.6167 -57.6500 53° Northeast 560 644 33,000  Level Gander Center
03:08 51.7000 -57.4333 58° Northeast 560 644 33,000  Level Moncton Center
03:08 51.7500 -57.3667 40° Northeast 560 644 33,000  Level Gander Center
03:09 51.8167 -57.1667 62° Northeast 560 644 33,000  Level Gander Center
03:10 51.8833 -57.0333 51° Northeast 560 644 33,000  Level Gander Center
03:11 51.9833 -56.8167 53° Northeast 560 644 33,000  Level Moncton Center
03:12 52.0667 -56.6000 58° Northeast 560 644 33,000  Level Moncton Center
03:13 52.1500 -56.3667 60° Northeast 560 644 33,000  Level Moncton Center
03:14 52.2333 -56.1667 56° Northeast 560 644 33,000  Level Moncton Center
03:15 52.3333 -55.9500 53° Northeast 560 644 33,000  Level Moncton Center
03:16 52.4167 -55.7500 56° Northeast 570 656 33,000  Level Moncton Center
03:16 52.4333 -55.6833 68° East 560 644 33,000  Level Gander Center
03:17 52.5000 -55.5333 54° Northeast 570 656 33,000  Level Moncton Center
03:18 52.5833 -55.3000 59° Northeast 570 656 33,000  Level Moncton Center
03:19 52.6667 -55.0833 58° Northeast 570 656 33,000  Level Moncton Center
03:19 52.7000 -55.0167 50° Northeast 570 656 33,000  Level Gander Center
03:20 52.7333 -54.9000 65° Northeast 570 656 33,000  Level Gander Center
03:20 52.7667 -54.8333 50° Northeast 570 656 33,000  Level Gander Center
03:21 52.8333 -54.6833 54° Northeast 570 656 33,000  Level Gander Center
03:21 52.8667 -54.6000 56° Northeast 570 656 33,000  Level Gander Center
03:22 52.9000 -54.4833 65° Northeast 570 656 33,000  Level Gander Center
03:23 52.9833 -54.2500 59° Northeast 570 656 33,000  Level Gander Center
03:24 53.0833 -54.0167 54° Northeast 570 656 33,000  Level Gander Center
03:25 53.1333 -53.7833 70° East 570 656 33,000  Level Gander Center
03:26 53.2000 -53.5333 66° East 570 656 33,000  Level Gander Center
03:27 53.2500 -53.2833 71° East 570 656 33,000  Level Gander Center
03:28 53.3167 -53.0500 64° Northeast 580 667 33,000  Level Gander Center
03:29 53.3667 -52.7833 72° East 570 656 33,000  Level Gander Center
03:30 53.4167 -52.5500 70° East 570 656 33,000  Level Gander Center
03:31 53.4833 -52.2833 67° East 580 667 33,000  Level Gander Center
03:31 53.5000 -52.1833 74° East 570 656 33,000  Level Gander Center
03:32 53.5500 -52.0333 61° Northeast 570 656 33,000  Level Gander Center
03:33 53.6000 -51.7667 72° East 570 656 33,000  Level Gander Center
03:34 53.6333 -51.5333 76° East 570 656 33,000  Level Gander Center
03:34 53.6667 -51.4167 64° Northeast 570 656 33,000  Level Gander Center
03:35 53.7333 -51.1667 66° East 570 656 33,000  Level Gander Center
03:36 53.8000 -50.9333 64° Northeast 580 667 33,000  Level Gander Center
03:37 53.8167 -50.7500 81° East 580 667 33,000  Level Gander Center
03:39 53.8958 -50.4294 67° East  Level FlightAware Approximate
03:39 53.9333 -50.0833 67° East 260 299 33,000  Level Gander Center
03:40 53.9500 -50.0333 60° Northeast 260 299 33,000  Level Gander Center
03:42 54.0471 -49.6673 76° East  Level FlightAware Approximate
03:49 54.2678 -47.9996 77° East  Level FlightAware Approximate
03:50 54.2975 -47.7599 78° East  Level FlightAware Approximate
03:51 54.3266 -47.5199 78° East  Level FlightAware Approximate
03:52 54.3553 -47.2795 78° East  Level FlightAware Approximate
03:53 54.3838 -47.0390 78° East  Level FlightAware Approximate
03:54 54.4120 -46.7981 79° East  Level FlightAware Approximate
03:55 54.4398 -46.5569 79° East  Level FlightAware Approximate
03:56 54.4670 -46.3154 79° East  Level FlightAware Approximate
03:57 54.4938 -46.0736 79° East  Level FlightAware Approximate
03:58 54.5201 -45.8314 79° East  Level FlightAware Approximate
03:59 54.5459 -45.5890 80° East  Level FlightAware Approximate
04:00 54.5712 -45.3462 80° East  Level FlightAware Approximate
04:01 54.5960 -45.1032 80° East  Level FlightAware Approximate
04:02 54.6204 -44.8598 80° East  Level FlightAware Approximate
04:03 54.6442 -44.6162 80° East  Level FlightAware Approximate
04:04 54.6676 -44.3723 80° East  Level FlightAware Approximate
04:05 54.6905 -44.1281 81° East  Level FlightAware Approximate
04:06 54.7129 -43.8836 81° East  Level FlightAware Approximate
04:07 54.7347 -43.6389 81° East  Level FlightAware Approximate
04:08 54.7561 -43.3939 81° East  Level FlightAware Approximate
04:09 54.7771 -43.1486 81° East  Level FlightAware Approximate
04:10 54.7975 -42.9031 82° East  Level FlightAware Approximate
04:11 54.8174 -42.6574 82° East  Level FlightAware Approximate
04:12 54.8368 -42.4114 82° East  Level FlightAware Approximate
04:13 54.8557 -42.1652 82° East  Level FlightAware Approximate
04:14 54.8741 -41.9187 82° East  Level FlightAware Approximate
04:15 54.8921 -41.6720 83° East  Level FlightAware Approximate
04:16 54.9095 -41.4252 83° East  Level FlightAware Approximate
04:17 54.9264 -41.1781 83° East  Level FlightAware Approximate
04:18 54.9429 -40.9291 83° East  Level FlightAware Approximate
04:19 54.9589 -40.6799 84° East  Level FlightAware Approximate
04:20 54.9744 -40.4305 84° East  Level FlightAware Approximate
04:21 54.9894 -40.1809 84° East  Level FlightAware Approximate
04:22 55.0028 -39.9309 86° East  Level FlightAware Approximate
04:23 55.0126 -39.6804 86° East  Level FlightAware Approximate
04:24 55.0220 -39.4297 86° East  Level FlightAware Approximate
04:25 55.0308 -39.1790 86° East  Level FlightAware Approximate
04:26 55.0391 -38.9281 87° East  Level FlightAware Approximate
04:27 55.0469 -38.6771 87° East  Level FlightAware Approximate
04:28 55.0541 -38.4261 87° East  Level FlightAware Approximate
04:29 55.0609 -38.1749 87° East  Level FlightAware Approximate
04:30 55.0671 -37.9237 87° East  Level FlightAware Approximate
04:31 55.0728 -37.6724 88° East  Level FlightAware Approximate
04:32 55.0780 -37.4210 88° East  Level FlightAware Approximate
04:33 55.0827 -37.1696 88° East  Level FlightAware Approximate
04:34 55.0866 -36.9180 88° East  Level FlightAware Approximate
04:35 55.0899 -36.6665 89° East  Level FlightAware Approximate
04:36 55.0927 -36.4149 89° East  Level FlightAware Approximate
04:37 55.0950 -36.1633 89° East  Level FlightAware Approximate
04:38 55.0968 -35.9116 89° East  Level FlightAware Approximate
04:39 55.0981 -35.6600 89° East  Level FlightAware Approximate
04:40 55.0988 -35.4083 90° East  Level FlightAware Approximate
04:41 55.0990 -35.1566 90° East  Level FlightAware Approximate
04:42 55.0987 -34.9049 90° East  Level FlightAware Approximate
04:43 55.0979 -34.6532 90° East  Level FlightAware Approximate
04:44 55.0966 -34.4015 90° East  Level FlightAware Approximate
04:45 55.0947 -34.1499 91° East  Level FlightAware Approximate
04:46 55.0923 -33.8983 91° East  Level FlightAware Approximate
04:47 55.0894 -33.6467 91° East  Level FlightAware Approximate
04:48 55.0860 -33.3951 91° East  Level FlightAware Approximate
04:49 55.0821 -33.1436 91° East  Level FlightAware Approximate
04:50 55.0776 -32.8922 92° East  Level FlightAware Approximate
04:51 55.0727 -32.6408 92° East  Level FlightAware Approximate
04:52 55.0672 -32.3890 92° East  Level FlightAware Approximate
04:53 55.0622 -32.1373 92° East  Level FlightAware Approximate
04:54 55.0569 -31.8856 92° East  Level FlightAware Approximate
04:55 55.0510 -31.6340 92° East  Level FlightAware Approximate
04:56 55.0446 -31.3824 92° East  Level FlightAware Approximate
04:57 55.0376 -31.1309 93° East  Level FlightAware Approximate
04:58 55.0302 -30.8796 93° East  Level FlightAware Approximate
04:59 55.0222 -30.6283 93° East  Level FlightAware Approximate
05:00 55.0137 -30.3771 93° East  Level FlightAware Approximate
05:01 55.0047 -30.1260 93° East  Level FlightAware Approximate
05:02 54.9926 -29.8755 96° East  Level FlightAware Approximate
05:03 54.9773 -29.6255 96° East  Level FlightAware Approximate
05:04 54.9615 -29.3757 96° East  Level FlightAware Approximate
05:05 54.9453 -29.1261 96° East  Level FlightAware Approximate
05:06 54.9285 -28.8767 97° East  Level FlightAware Approximate
05:07 54.9111 -28.6275 97° East  Level FlightAware Approximate
05:08 54.8933 -28.3786 97° East  Level FlightAware Approximate
05:09 54.8750 -28.1298 97° East  Level FlightAware Approximate
05:10 54.8562 -27.8813 97° East  Level FlightAware Approximate
05:11 54.8368 -27.6330 98° East  Level FlightAware Approximate
05:12 54.8170 -27.3850 98° East  Level FlightAware Approximate
05:13 54.7966 -27.1372 98° East  Level FlightAware Approximate
05:14 54.7757 -26.8897 98° East  Level FlightAware Approximate
05:15 54.7544 -26.6424 98° East  Level FlightAware Approximate
05:16 54.7325 -26.3954 99° East  Level FlightAware Approximate
05:17 54.7101 -26.1486 99° East  Level FlightAware Approximate
05:18 54.6872 -25.9021 99° East  Level FlightAware Approximate
05:19 54.6639 -25.6560 99° East  Level FlightAware Approximate
05:20 54.6400 -25.4101 99° East  Level FlightAware Approximate
05:21 54.6156 -25.1644 100° East  Level FlightAware Approximate
05:22 54.5908 -24.9191 100° East  Level FlightAware Approximate
05:23 54.5654 -24.6741 100° East  Level FlightAware Approximate
05:24 54.5396 -24.4294 100° East  Level FlightAware Approximate
05:25 54.5134 -24.1850 100° East  Level FlightAware Approximate
05:26 54.4877 -23.9405 100° East  Level FlightAware Approximate
05:27 54.4615 -23.6964 100° East  Level FlightAware Approximate
05:28 54.4348 -23.4526 101° East  Level FlightAware Approximate
05:29 54.4077 -23.2091 101° East  Level FlightAware Approximate
05:30 54.3800 -22.9659 101° East  Level FlightAware Approximate
05:31 54.3519 -22.7230 101° East  Level FlightAware Approximate
05:32 54.3233 -22.4805 101° East  Level FlightAware Approximate
05:33 54.2942 -22.2383 102° East  Level FlightAware Approximate
05:34 54.2646 -21.9965 102° East  Level FlightAware Approximate
05:35 54.2345 -21.7550 102° East  Level FlightAware Approximate
05:36 54.2040 -21.5139 102° East  Level FlightAware Approximate
05:37 54.1729 -21.2732 102° East  Level FlightAware Approximate
05:38 54.1414 -21.0328 103° East  Level FlightAware Approximate
05:39 54.1094 -20.7927 103° East  Level FlightAware Approximate
05:40 54.0770 -20.5531 103° East  Level FlightAware Approximate
05:41 54.0440 -20.3138 103° East  Level FlightAware Approximate
05:42 54.0106 -20.0749 103° East  Level FlightAware Approximate
05:43 53.9556 -19.8496 117° Southeast  Level FlightAware Approximate
05:44 53.8906 -19.6309 117° Southeast  Level FlightAware Approximate
05:45 53.8252 -19.4129 117° Southeast  Level FlightAware Approximate
05:46 53.7594 -19.1956 117° Southeast  Level FlightAware Approximate
05:47 53.6932 -18.9789 117° Southeast  Level FlightAware Approximate
05:48 53.6266 -18.7630 117° Southeast  Level FlightAware Approximate
05:49 53.5597 -18.5477 118° Southeast  Level FlightAware Approximate
05:50 53.4923 -18.3331 118° Southeast  Level FlightAware Approximate
05:51 53.4245 -18.1192 118° Southeast  Level FlightAware Approximate
05:52 53.3564 -17.9060 118° Southeast  Level FlightAware Approximate
05:53 53.2879 -17.6935 118° Southeast  Level FlightAware Approximate
05:54 53.2191 -17.4816 118° Southeast  Level FlightAware Approximate
05:55 53.1498 -17.2704 119° Southeast  Level FlightAware Approximate
05:56 53.0802 -17.0599 119° Southeast  Level FlightAware Approximate
05:57 53.0102 -16.8501 119° Southeast  Level FlightAware Approximate
05:58 52.9398 -16.6410 119° Southeast  Level FlightAware Approximate
05:59 52.8691 -16.4326 119° Southeast  Level FlightAware Approximate
06:00 52.7980 -16.2248 119° Southeast  Level FlightAware Approximate
06:01 52.7266 -16.0177 120° Southeast  Level FlightAware Approximate
06:01 51.6060 -11.9790 120° Southeast 550 633 37,000  Level FlightAware
06:01 51.5540 -11.8720 128° Southeast 550 633 37,000  Level FlightAware
06:02 51.4720 -11.7090 129° Southeast 544 626 37,000  Level FlightAware
06:03 51.3860 -11.5340 128° Southeast 542 624 37,000  Level FlightAware
06:04 51.3420 -11.4430 128° Southeast 542 624 37,000  Level FlightAware
06:04 51.2540 -11.2710 129° Southeast 539 620 37,000  Level FlightAware
06:05 51.1860 -11.1390 129° Southeast 537 618 37,000  Level FlightAware
06:06 51.1200 -11.0070 129° Southeast 534 615 37,000  Level FlightAware
06:07 51.0500 -10.8700 129° Southeast 530 610 37,000  Level FlightAware
06:07 50.9870 -10.7460 129° Southeast 533 613 37,000  Level FlightAware
06:08 50.9180 -10.6130 129° Southeast 535 616 37,000  Level FlightAware
06:09 50.8610 -10.5020 129° Southeast 535 616 37,000  Level FlightAware
06:09 50.7880 -10.3610 129° Southeast 538 619 37,000  Level FlightAware
06:10 50.7200 -10.2310 130° Southeast 539 620 37,000  Level FlightAware
06:11 50.6630 -10.1220 129° Southeast 541 623 37,000  Level FlightAware
06:11 50.5870 -9.9760 129° Southeast 542 624 37,000  Level FlightAware
06:12 50.5240 -9.8610 131° Southeast 543 625 37,000  Level FlightAware
06:13 50.4540 -9.7280 130° Southeast 540 621 37,000  Level FlightAware
06:14 50.3830 -9.5970 130° Southeast 538 619 37,000  Level FlightAware
06:14 50.3220 -9.4840 130° Southeast 537 618 37,000  Level FlightAware
06:15 50.2510 -9.3510 130° Southeast 537 618 37,000  Level FlightAware
06:16 50.1880 -9.2350 130° Southeast 536 617 37,000  Level FlightAware
06:16 50.1210 -9.1120 130° Southeast 536 617 37,000  Level FlightAware
06:17 50.0512 -8.9845 130° Southeast 500 575 37,000  Level FlightAware UK
06:17 50.0500 -8.9830 130° Southeast 537 618 37,000  Level FlightAware
06:17 50.0223 -8.9317 130° Southeast 502 578 37,000  Level FlightAware UK
06:18 49.9932 -8.8790 131° Southeast 506 582 37,000  Level FlightAware UK
06:18 49.9800 -8.8540 131° Southeast 537 618 37,000  Level FlightAware
06:18 49.9449 -8.7911 131° Southeast 506 582 37,000  Level FlightAware UK
06:18 49.9157 -8.7386 131° Southeast 506 582 37,000  Level FlightAware UK
06:18 49.9150 -8.7400 131° Southeast 536 617 37,000  Level FlightAware
06:19 49.8865 -8.6862 131° Southeast 506 582 37,000  Level FlightAware UK
06:19 49.8573 -8.6340 131° Southeast 504 580 37,000  Level FlightAware UK
06:19 49.8480 -8.6180 131° Southeast 535 616 37,000  Level FlightAware
06:19 49.8184 -8.5646 131° Southeast 502 578 37,000  Level FlightAware UK
06:20 49.7893 -8.5125 131° Southeast 502 578 37,000  Level FlightAware UK
06:20 49.7830 -8.5030 131° Southeast 535 616 37,000  Level FlightAware
06:20 49.7506 -8.4431 131° Southeast 502 578 37,000  Level FlightAware UK
06:20 49.7215 -8.3911 131° Southeast 504 580 37,000  Level FlightAware UK
06:21 49.7080 -8.3670 131° Southeast 535 616 37,000  Level FlightAware
06:21 49.6728 -8.3047 131° Southeast 506 582 37,000  Level FlightAware UK
06:21 49.6435 -8.2530 131° Southeast 506 582 37,000  Level FlightAware UK
06:21 49.6430 -8.2520 131° Southeast 535 616 37,000  Level FlightAware
06:21 49.6143 -8.2012 131° Southeast 504 580 37,000  Level FlightAware UK
06:22 49.5851 -8.1495 131° Southeast 504 580 37,000  Level FlightAware UK
06:22 49.5850 -8.1510 131° Southeast 535 616 37,000  Level FlightAware
06:22 49.5558 -8.0977 131° Southeast 504 580 37,000  Level FlightAware UK
06:22 49.5263 -8.0453 131° Southeast 506 582 37,000  Level FlightAware UK
06:22 49.5250 -8.0410 131° Southeast 529 609 37,000  Level FlightAware
06:23 49.4996 -7.9651 131° Southeast 506 582 37,000  Level FlightAware UK
06:23 49.4856 -7.9030 109° East 504 580 37,000  Level FlightAware UK
06:23 49.4860 -7.8990 109° East 514 592 37,000  Level FlightAware
06:23 49.4759 -7.8177 109° East 506 582 37,000  Level FlightAware UK
06:24 49.4659 -7.7543 104° East 508 585 37,000  Level FlightAware UK
06:24 49.4660 -7.7570 104° East 508 585 37,000  Level FlightAware
06:24 49.4545 -7.6693 104° East 504 580 37,000  Level FlightAware UK
06:24 49.4459 -7.6055 102° East 508 585 37,000  Level FlightAware UK
06:25 49.4450 -7.5980 102° East 508 585 37,000  Level FlightAware
06:25 49.4347 -7.5204 102° East 504 580 37,000  Level FlightAware UK
06:25 49.4260 -7.4565 102° East 504 580 37,000  Level FlightAware UK
06:25 49.4200 -7.4130 102° East 512 589 37,000  Level FlightAware
06:25 49.4171 -7.3927 102° East 506 582 37,000  Level FlightAware UK
06:26 49.4111 -7.3502 102° East 506 582 37,000  Level FlightAware UK
06:26 49.4021 -7.2863 102° East 506 582 37,000  Level FlightAware UK
06:26 49.3980 -7.2570 102° East 516 594 37,000  Level FlightAware
06:26 49.3869 -7.1794 102° East 508 585 37,000  Level FlightAware UK
06:27 49.3764 -7.1154 104° East 512 589 37,000  Level FlightAware UK
06:27 49.3700 -7.1000 104° East 524 603 37,000  Level FlightAware
06:27 49.3520 -7.0320 104° East 513 590 37,000  Level FlightAware UK
06:27 49.3334 -6.9714 115° Southeast 515 593 37,000  Level FlightAware UK
06:28 49.3300 -6.9640 115° Southeast 526 605 37,000  Level FlightAware
06:28 49.3136 -6.9107 115° Southeast 517 595 37,000  Level FlightAware UK
06:28 49.2934 -6.8514 118° Southeast 517 595 37,000  Level FlightAware UK
06:28 49.2810 -6.8200 118° Southeast 523 602 37,000  Level FlightAware
06:29 49.2586 -6.7544 118° Southeast 513 590 37,000  Level FlightAware UK
06:29 49.2375 -6.6967 119° Southeast 512 589 37,000  Level FlightAware UK
06:29 49.2340 -6.6910 119° Southeast 521 600 37,000  Level FlightAware
06:29 49.2160 -6.6391 119° Southeast 513 590 37,000  Level FlightAware UK
06:29 49.1945 -6.5816 120° Southeast 512 589 37,000  Level FlightAware UK
06:30 49.1840 -6.5560 120° Southeast 521 600 37,000  Level FlightAware
06:30 49.1659 -6.5050 120° Southeast 512 589 37,000  Level FlightAware UK
06:30 49.1442 -6.4477 120° Southeast 512 589 37,000  Level FlightAware UK
06:30 49.1310 -6.4160 120° Southeast 522 601 37,000  Level FlightAware
06:31 49.1077 -6.3521 120° Southeast 513 590 37,000  Level FlightAware UK
06:31 49.0859 -6.2950 120° Southeast 513 590 37,000  Level FlightAware UK
06:31 49.0770 -6.2760 120° Southeast 520 598 37,000  Level FlightAware
06:31 49.0569 -6.2189 120° Southeast 510 587 37,000  Level FlightAware UK
06:32 49.0352 -6.1618 120° Southeast 512 589 37,000  Level FlightAware UK
06:32 49.0300 -6.1490 120° Southeast 521 600 37,000  Level FlightAware
06:32 49.0065 -6.0854 120° Southeast 510 587 37,000  Level FlightAware UK
06:32 48.9848 -6.0281 120° Southeast 510 587 37,000  Level FlightAware UK
06:32 48.9770 -6.0090 120° Southeast 524 603 37,000  Level FlightAware
06:33 48.9557 -5.9518 120° Southeast 510 587 37,000  Level FlightAware UK
06:33 48.9338 -5.8944 120° Southeast 513 590 37,000  Level FlightAware UK
06:33 48.9280 -5.8810 120° Southeast 526 605 37,000  Level FlightAware
06:33 48.9042 -5.8171 120° Southeast 515 593 37,000  Level FlightAware UK
06:34 48.8821 -5.7595 120° Southeast 513 590 37,000  Level FlightAware UK
06:34 48.8740 -5.7410 120° Southeast 526 605 37,000  Level FlightAware
06:34 48.8527 -5.6829 120° Southeast 515 593 37,000  Level FlightAware UK
06:34 48.8309 -5.6254 120° Southeast 517 595 37,000  Level FlightAware UK
06:34 48.8300 -5.6260 120° Southeast 524 603 37,000  Level FlightAware
06:35 48.8089 -5.5681 120° Southeast 517 595 37,000  Level FlightAware UK
06:35 48.7867 -5.5111 121° Southeast 515 593 37,000  Level FlightAware UK
06:35 48.8030 -5.5560 121° Southeast 523 602 37,000  Level FlightAware
06:36 48.7499 -5.4165 121° Southeast 515 593 37,000  Level FlightAware UK
06:36 48.7277 -5.3599 121° Southeast 515 593 37,000  Level FlightAware UK
06:36 48.7230 -5.3490 121° Southeast 521 600 37,000  Level FlightAware
06:36 48.6984 -5.2844 121° Southeast 513 590 37,000  Level FlightAware UK
06:37 48.6764 -5.2280 121° Southeast 513 590 37,000  Level FlightAware UK
06:37 48.6750 -5.2260 121° Southeast 521 600 37,000  Level FlightAware
06:37 48.6544 -5.1714 121° Southeast 513 590 37,000  Level FlightAware UK
06:37 48.6323 -5.1151 121° Southeast 515 593 37,000  Level FlightAware UK
06:37 48.6180 -5.0820 121° Southeast 521 600 37,000  Level FlightAware
06:38 48.5953 -5.0215 121° Southeast 513 590 37,000  Level FlightAware UK
06:38 48.5730 -4.9655 121° Southeast 513 590 37,000  Level FlightAware UK
06:38 48.5690 -4.9570 121° Southeast 520 598 37,000  Level FlightAware
06:38 48.5510 -4.9093 121° Southeast 513 590 37,000  Level FlightAware UK
06:39 48.5290 -4.8530 121° Southeast 513 590 37,000  Level FlightAware UK
06:39 48.5150 -4.8190 121° Southeast 520 598 37,000  Level FlightAware
06:39 48.4926 -4.7591 121° Southeast 513 590 37,000  Level FlightAware UK
06:39 48.4704 -4.7024 121° Southeast 513 590 37,000  Level FlightAware UK
06:39 48.4660 -4.6940 121° Southeast 519 597 37,000  Level FlightAware
06:40 48.4410 -4.6276 121° Southeast 515 593 37,000  Level FlightAware UK
06:40 48.4190 -4.5716 121° Southeast 515 593 37,000  Level FlightAware UK
06:40 48.4180 -4.5700 121° Southeast 519 597 37,000  Level FlightAware
06:40 48.3971 -4.5158 121° Southeast 513 590 37,000  Level FlightAware UK
06:41 48.3752 -4.4600 121° Southeast 513 590 37,000  Level FlightAware UK
06:41 48.3620 -4.4270 121° Southeast 518 596 37,000  Level FlightAware
06:41 48.3388 -4.3669 121° Southeast 513 590 37,000  Level FlightAware UK
06:42 48.3140 -4.3060 121° Southeast 518 596 37,000  Level FlightAware
06:42 48.2882 -4.2365 121° Southeast 513 590 37,000  Level FlightAware UK
06:42 48.2664 -4.1808 120° Southeast 513 590 37,000  Level FlightAware UK
06:42 48.2610 -4.1700 120° Southeast 517 595 37,000  Level FlightAware
06:43 48.2120 -4.0430 120° Southeast 517 595 37,000  Level FlightAware
06:44 48.1610 -3.9130 120° Southeast 517 595 37,000  Level FlightAware
06:44 48.1120 -3.7870 120° Southeast 517 595 37,000  Level FlightAware
06:46 48.0130 -3.5310 120° Southeast 517 595 37,000  Level FlightAware
06:46 47.9620 -3.4010 120° Southeast 516 594 37,000  Level FlightAware
06:47 47.9210 -3.2650 114° Southeast 515 593 37,000  Level FlightAware
06:48 47.8870 -3.1330 111° Southeast 515 593 37,000  Level FlightAware
06:49 47.8480 -2.9880 112° Southeast 514 592 37,000  Level FlightAware
06:49 47.8130 -2.8530 111° Southeast 515 593 37,000  Level FlightAware
06:50 47.7820 -2.7350 111° Southeast 514 592 37,000  Level FlightAware
06:51 47.7390 -2.5740 112° Southeast 514 592 37,000  Level FlightAware
06:51 47.7040 -2.4390 111° Southeast 514 592 37,000  Level FlightAware
06:52 47.6650 -2.2950 112° Southeast 514 592 37,000  Level FlightAware
06:53 47.6330 -2.1850 113° Southeast 514 592 37,000  Level FlightAware
06:53 47.5830 -2.0460 118° Southeast 512 589 37,000  Level FlightAware
06:54 47.5130 -1.9270 131° Southeast 514 592 37,000  Level FlightAware
06:55 47.4540 -1.8130 127° Southeast 514 592 37,000  Level FlightAware
06:55 47.3990 -1.6890 123° Southeast 515 593 37,000  Level FlightAware
06:56 47.3470 -1.5590 121° Southeast 515 593 37,000  Level FlightAware
06:57 47.3010 -1.4360 119° Southeast 515 593 37,000  Level FlightAware
06:58 47.2530 -1.3000 117° Southeast 515 593 37,000  Level FlightAware
06:58 47.2060 -1.1690 118° Southeast 513 590 37,000  Level FlightAware
06:59 47.1570 -1.0330 118° Southeast 515 593 37,000  Level FlightAware
07:00 47.1130 -0.9100 118° Southeast 516 594 37,000  Level FlightAware
07:00 47.0670 -0.7860 119° Southeast 516 594 37,000  Level FlightAware
07:01 47.0150 -0.6440 118° Southeast 517 595 37,000  Level FlightAware
07:02 46.9770 -0.5400 118° Southeast 517 595 37,000  Level FlightAware
07:02 46.9320 -0.4180 118° Southeast 516 594 37,000  Level FlightAware
07:04 46.8470 -0.1910 119° Southeast 515 593 37,000  Level FlightAware
07:04 46.7990 -0.0630 119° Southeast 514 592 37,000  Level FlightAware
07:05 46.7540 0.0550 119° Southeast 514 592 37,000  Level FlightAware
07:06 46.7500 0.0640 123° Southeast 514 592 37,000  Level FlightAware
07:06 46.6720 0.3530 111° Southeast 514 592 37,000  Level FlightAware
07:07 46.6400 0.4790 110° East 515 593 37,000  Level FlightAware
07:08 46.6150 0.5770 110° East 515 593 37,000  Level FlightAware
07:08 46.5730 0.7430 110° East 517 595 37,000  Level FlightAware
07:09 46.5360 0.8970 109° East 519 597 37,000  Level FlightAware
07:11 46.4770 1.1400 109° East 519 597 37,000  Level FlightAware
07:11 46.4190 1.2970 118° Southeast 519 597 37,000  Level FlightAware
07:12 46.3640 1.4150 124° Southeast 516 594 37,000  Level FlightAware
07:13 46.3220 1.5080 123° Southeast 516 594 37,000  Level FlightAware
07:13 46.2690 1.6320 122° Southeast 516 594 37,000  Level FlightAware
07:14 46.2010 1.7760 124° Southeast 522 601 37,000  Level FlightAware
07:15 46.1420 1.9010 124° Southeast 523 602 37,000  Level FlightAware
07:15 46.0880 2.0190 123° Southeast 523 602 37,000  Level FlightAware
07:16 46.0290 2.1440 124° Southeast 523 602 37,000  Level FlightAware
07:17 45.9710 2.2680 124° Southeast 524 603 37,000  Level FlightAware
07:18 45.9130 2.3910 124° Southeast 523 602 37,000  Level FlightAware
07:18 45.8520 2.5210 124° Southeast 524 603 37,000  Level FlightAware
07:19 45.7990 2.6330 124° Southeast 526 605 37,000  Level FlightAware
07:20 45.7490 2.7370 125° Southeast 525 604 37,000  Level FlightAware
07:21 45.6670 2.9100 124° Southeast 526 605 37,000  Level FlightAware
07:21 45.6170 3.0120 125° Southeast 523 602 37,000  Level FlightAware
07:22 45.5560 3.1440 123° Southeast 523 602 37,000  Level FlightAware
07:23 45.5020 3.2620 123° Southeast 523 602 37,000  Level FlightAware
07:24 45.3940 3.3960 139° Southeast 530 610 37,000  Level FlightAware
07:24 45.3170 3.5220 131° Southeast 531 611 37,000  Level FlightAware
07:25 45.2480 3.6350 131° Southeast 530 610 37,000  Level FlightAware
07:26 45.1860 3.7420 129° Southeast 530 610 37,000  Level FlightAware
07:27 45.1300 3.8770 120° Southeast 531 611 37,000  Level FlightAware
07:27 45.0710 4.0380 117° Southeast 531 611 37,000  Level FlightAware
07:28 45.0370 4.1340 117° Southeast 530 610 37,000  Level FlightAware
07:29 44.9770 4.3000 117° Southeast 531 611 37,000  Level FlightAware
07:30 44.9320 4.4240 117° Southeast 534 615 37,000  Level FlightAware
07:30 44.8850 4.5510 118° Southeast 538 619 37,000  Level FlightAware
07:31 44.8370 4.6810 117° Southeast 532 612 37,000  Level FlightAware
07:32 44.7750 4.8440 118° Southeast 537 618 37,000  Level FlightAware
07:33 44.7130 4.9830 122° Southeast 536 617 37,000  Level FlightAware
07:33 44.6560 5.1010 124° Southeast 531 611 37,000  Level FlightAware
07:34 44.5920 5.2340 124° Southeast 541 623 37,000  Level FlightAware
07:35 44.5240 5.3690 125° Southeast 541 623 37,000  Level FlightAware
07:36 44.4520 5.5150 125° Southeast 538 619 37,000  Level FlightAware
07:36 44.4040 5.6170 123° Southeast 539 620 37,000  Level FlightAware
07:37 44.3360 5.7630 123° Southeast 543 625 37,000  Level FlightAware
07:38 44.2860 5.8690 123° Southeast 544 626 37,000  Level FlightAware
07:38 44.2240 6.0060 122° Southeast 547 629 37,000  Level FlightAware
07:39 44.1520 6.1590 123° Southeast 548 631 37,000  Level FlightAware
07:41 44.0720 6.3220 124° Southeast 548 631 37,000  Level FlightAware
07:42 43.9220 6.6340 124° Southeast 547 629 37,000  Level FlightAware
07:43 43.8680 6.7450 124° Southeast 549 632 37,000  Level FlightAware
07:43 43.8080 6.8760 122° Southeast 551 634 37,000  Level FlightAware
07:44 43.7510 7.0050 121° Southeast 552 635 37,000  Level FlightAware
07:45 43.6960 7.1270 122° Southeast 553 636 37,000  Level FlightAware
07:45 43.6410 7.2430 123° Southeast 553 636 37,000  Level FlightAware
07:46 43.5890 7.3590 122° Southeast 553 636 37,000  Level FlightAware
07:47 43.5150 7.5170 123° Southeast 554 638 37,000  Level FlightAware
07:48 43.4600 7.6350 123° Southeast 556 640 37,000  Level FlightAware
07:48 43.4050 7.7510 123° Southeast 556 640 37,000  Level FlightAware
07:49 43.3460 7.8790 122° Southeast 555 639 37,000  Level FlightAware
07:50 43.2930 7.9880 124° Southeast 555 639 37,000  Level FlightAware
07:50 43.2290 8.1260 122° Southeast 554 638 37,000  Level FlightAware
07:51 43.1700 8.2500 123° Southeast 555 639 37,000  Level FlightAware
07:52 43.1120 8.3700 123° Southeast 555 639 37,000  Level FlightAware
07:53 43.0500 8.5000 123° Southeast 556 640 37,000  Level FlightAware
07:53 42.9880 8.6290 123° Southeast 555 639 37,000  Level FlightAware
07:54 42.9310 8.7450 124° Southeast 554 638 37,000  Level FlightAware
07:55 42.8740 8.8620 124° Southeast 554 638 37,000  Level FlightAware
07:55 42.8120 8.9910 123° Southeast 558 642 37,000  Level FlightAware
07:56 42.7490 9.1190 124° Southeast 561 646 37,000  Level FlightAware
07:57 42.6900 9.2400 124° Southeast 563 648 37,000  Level FlightAware
07:57 42.6290 9.3630 124° Southeast 562 647 37,000  Level FlightAware
07:58 42.5730 9.4890 121° Southeast 562 647 37,000  Level FlightAware
07:59 42.5340 9.6210 112° Southeast 564 649 37,000  Level FlightAware
08:00 42.4950 9.7670 110° East 566 651 37,000  Level FlightAware
08:00 42.4570 9.9110 110° East 567 652 37,000  Level FlightAware
08:01 42.4210 10.0440 110° East 567 652 37,000  Level FlightAware
08:02 42.3810 10.1900 110° East 567 652 37,000  Level FlightAware
08:02 42.3450 10.3270 110° East 568 654 37,000  Level FlightAware
08:03 42.3050 10.4700 111° Southeast 570 656 37,000  Level FlightAware
08:04 42.2690 10.6030 110° East 571 657 37,000  Level FlightAware
08:04 42.2260 10.7420 113° Southeast 569 655 37,000  Level FlightAware
08:05 42.1500 10.9050 122° Southeast 559 643 37,000  Level FlightAware
08:06 42.0870 11.0140 128° Southeast 559 643 37,000  Level FlightAware
08:07 42.0150 11.1370 128° Southeast 563 648 37,000  Level FlightAware
08:07 41.9450 11.2560 128° Southeast 566 651 37,000  Level FlightAware
08:08 41.8750 11.3710 129° Southeast 568 654 37,000  Level FlightAware
08:09 41.8100 11.4820 128° Southeast 570 656 37,000  Level FlightAware
08:10 41.7360 11.6060 129° Southeast 570 656 37,000  Level FlightAware
08:10 41.6700 11.7170 128° Southeast 570 656 37,000  Level FlightAware
08:11 41.5810 11.8650 129° Southeast 573 659 37,000  Level FlightAware
08:12 41.5150 11.9750 129° Southeast 568 654 37,000  Level FlightAware
08:13 41.4390 12.1020 129° Southeast 568 654 37,000  Level FlightAware
08:13 41.3740 12.2090 129° Southeast 569 655 37,000  Level FlightAware
08:14 41.2960 12.3350 129° Southeast 569 655 37,000  Level FlightAware
08:15 41.2460 12.4170 129° Southeast 570 656 37,000  Level FlightAware
08:15 41.2110 12.4840 125° Southeast 576 663 37,000  Level FlightAware
08:16 41.1400 12.6330 122° Southeast 577 664 37,000  Level FlightAware
08:17 41.0710 12.7820 122° Southeast 580 667 37,000  Level FlightAware
08:17 41.0080 12.9220 121° Southeast 581 669 37,000  Level FlightAware
08:18 40.9560 13.0340 122° Southeast 579 666 37,000  Level FlightAware
08:19 40.9000 13.1580 121° Southeast 579 666 37,000  Level FlightAware
08:19 40.8360 13.3000 121° Southeast 577 664 37,000  Level FlightAware
08:20 40.7800 13.4200 122° Southeast 575 662 37,000  Level FlightAware
08:21 40.7190 13.5520 121° Southeast 574 661 37,000  Level FlightAware
08:21 40.6640 13.6750 120° Southeast 574 661 37,000  Level FlightAware
08:22 40.6030 13.8060 121° Southeast 574 661 37,000  Level FlightAware
08:23 40.5450 13.9280 122° Southeast 574 661 37,000  Level FlightAware
08:24 40.4830 14.0620 121° Southeast 573 659 37,000  Level FlightAware
08:24 40.4280 14.1770 122° Southeast 574 661 37,000  Level FlightAware
08:26 40.3160 14.4140 122° Southeast 569 655 37,000  Level FlightAware
08:26 40.2590 14.5350 122° Southeast 572 658 37,000  Level FlightAware
08:27 40.1970 14.6660 122° Southeast 564 649 37,000  Level FlightAware
08:28 40.1420 14.7800 122° Southeast 563 648 37,000  Level FlightAware
08:28 40.0790 14.9130 122° Southeast 562 647 37,000  Level FlightAware
08:29 40.0230 15.0260 123° Southeast 561 646 37,000  Level FlightAware
08:30 39.9620 15.1530 122° Southeast 559 643 37,000  Level FlightAware
08:31 39.9010 15.2790 122° Southeast 561 646 37,000  Level FlightAware
08:31 39.8460 15.3920 122° Southeast 560 644 37,000  Level FlightAware
08:32 39.7850 15.5170 122° Southeast 559 643 37,000  Level FlightAware
08:33 39.7280 15.6310 123° Southeast 559 643 37,000  Level FlightAware
08:33 39.6650 15.7580 123° Southeast 561 646 37,000  Level FlightAware
08:34 39.6130 15.8780 119° Southeast 566 651 37,000  Level FlightAware
08:35 39.5690 15.9940 116° Southeast 568 654 37,000  Level FlightAware
08:35 39.5200 16.1370 114° Southeast 567 652 37,000  Level FlightAware
08:36 39.4800 16.2550 114° Southeast 563 648 37,000  Level FlightAware
08:37 39.4330 16.3950 113° Southeast 571 657 37,000  Level FlightAware
08:38 39.3910 16.5190 114° Southeast 566 651 37,000  Level FlightAware
08:38 39.3420 16.6640 114° Southeast 562 647 37,000  Level FlightAware
08:39 39.2990 16.7910 114° Southeast 563 648 37,000  Level FlightAware
08:40 39.2560 16.9170 114° Southeast 566 651 37,000  Level FlightAware
08:41 39.2210 17.0190 114° Southeast 566 651 37,000  Level FlightAware
08:41 39.1680 17.1730 114° Southeast 564 649 37,000  Level FlightAware
08:42 39.1230 17.3050 114° Southeast 563 648 37,000  Level FlightAware
08:43 39.0760 17.4400 114° Southeast 566 651 37,000  Level FlightAware
08:43 39.0360 17.5500 115° Southeast 566 651 37,000  Level FlightAware
08:44 38.9900 17.6850 114° Southeast 565 650 37,000  Level FlightAware
08:45 38.9540 17.7890 114° Southeast 565 650 37,000  Level FlightAware
08:46 38.8980 17.9510 114° Southeast 565 650 37,000  Level FlightAware
08:46 38.8420 18.1040 115° Southeast 560 644 37,000  Level FlightAware
08:47 38.7980 18.2270 115° Southeast 557 641 37,000  Level FlightAware
08:48 38.7510 18.3580 115° Southeast 556 640 37,000  Level FlightAware
08:48 38.7050 18.4840 115° Southeast 553 636 37,000  Level FlightAware
08:49 38.6630 18.6020 114° Southeast 549 632 37,000  Level FlightAware
08:50 38.5880 18.8080 115° Southeast 547 629 37,000  Level FlightAware
08:51 38.5400 18.9400 115° Southeast 548 631 37,000  Level FlightAware
08:52 38.5010 19.0640 112° Southeast 553 636 37,000  Level FlightAware
08:52 38.4640 19.1820 112° Southeast 554 638 37,000  Level FlightAware
08:53 38.4200 19.3180 112° Southeast 554 638 37,000  Level FlightAware
08:54 38.3800 19.4420 112° Southeast 554 638 37,000  Level FlightAware
08:54 38.3420 19.5600 112° Southeast 557 641 37,000  Level FlightAware
08:55 38.2970 19.6990 112° Southeast 559 643 37,000  Level FlightAware
08:56 38.2580 19.8210 112° Southeast 561 646 37,000  Level FlightAware
08:56 38.2130 19.9590 113° Southeast 562 647 37,000  Level FlightAware
08:57 38.1720 20.0820 113° Southeast 562 647 37,000  Level FlightAware
08:58 38.1330 20.2050 112° Southeast 562 647 37,000  Level FlightAware
08:59 38.0870 20.3450 113° Southeast 560 644 37,000  Level FlightAware
08:59 38.0470 20.4630 113° Southeast 554 638 37,000  Level FlightAware
09:00 38.0070 20.5860 112° Southeast 551 634 37,000  Level FlightAware
09:01 37.9670 20.7050 113° Southeast 549 632 37,000  Level FlightAware
09:01 37.9170 20.8520 113° Southeast 551 634 37,000  Level FlightAware
09:02 37.8770 20.9730 113° Southeast 550 633 37,000  Level FlightAware
09:03 37.8410 21.0780 113° Southeast 551 634 37,000  Level FlightAware
09:03 37.7880 21.2360 113° Southeast 555 639 37,000  Level FlightAware
09:04 37.7470 21.3550 114° Southeast 556 640 37,000  Level FlightAware
09:05 37.7060 21.4710 114° Southeast 555 639 37,000  Level FlightAware
09:06 37.6640 21.5960 113° Southeast 554 638 37,000  Level FlightAware
09:06 37.6190 21.7260 114° Southeast 555 639 37,000  Level FlightAware
09:07 37.5760 21.8500 114° Southeast 554 638 37,000  Level FlightAware
09:08 37.5320 21.9770 114° Southeast 553 636 37,000  Level FlightAware
09:08 37.4910 22.0950 114° Southeast 550 633 37,000  Level FlightAware
09:09 37.4450 22.2240 114° Southeast 551 634 37,000  Level FlightAware
09:10 37.3950 22.3490 117° Southeast 547 629 37,000  Level FlightAware
09:10 37.3490 22.4360 124° Southeast 545 627 37,000  Level FlightAware
09:11 37.3040 22.5130 126° Southeast 547 629 37,000  Level FlightAware
09:12 37.2280 22.6470 125° Southeast 547 629 37,000  Level FlightAware
09:12 37.1640 22.7550 127° Southeast 549 632 37,000  Level FlightAware
09:13 37.0970 22.8710 126° Southeast 550 633 37,000  Level FlightAware
09:14 37.0350 22.9770 126° Southeast 554 638 37,000  Level FlightAware
09:15 36.9730 23.0830 126° Southeast 552 635 37,000  Level FlightAware
09:16 36.8580 23.2790 126° Southeast 556 640 37,000  Level FlightAware
09:17 36.7850 23.4030 126° Southeast 559 643 37,000  Level FlightAware
09:17 36.7150 23.5200 127° Southeast 560 644 37,000  Level FlightAware
09:18 36.6530 23.6260 126° Southeast 560 644 37,000  Level FlightAware
09:19 36.5860 23.7380 127° Southeast 560 644 37,000  Level FlightAware
09:19 36.5240 23.8410 127° Southeast 561 646 37,000  Level FlightAware
09:20 36.4580 23.9490 127° Southeast 558 642 37,000  Level FlightAware
09:21 36.3930 24.0600 126° Southeast 554 638 37,000  Level FlightAware
09:21 36.3380 24.1500 127° Southeast 560 644 37,000  Level FlightAware
09:22 36.2660 24.2680 127° Southeast 562 647 37,000  Level FlightAware
09:23 36.2020 24.3730 127° Southeast 562 647 37,000  Level FlightAware
09:24 36.1320 24.4890 127° Southeast 562 647 37,000  Level FlightAware
09:24 36.0700 24.5920 127° Southeast 562 647 37,000  Level FlightAware
09:25 36.0100 24.7130 121° Southeast 561 646 37,000  Level FlightAware
09:26 35.9850 24.7740 117° Southeast 563 648 37,000  Level FlightAware
09:26 35.9100 24.9620 116° Southeast 564 649 37,000  Level FlightAware
09:27 35.8630 25.0790 116° Southeast 567 652 37,000  Level FlightAware
09:28 35.8160 25.1950 117° Southeast 567 652 37,000  Level FlightAware
09:28 35.7700 25.3120 116° Southeast 572 658 37,000  Level FlightAware
09:29 35.7170 25.4420 117° Southeast 570 656 37,000  Level FlightAware
09:30 35.6690 25.5580 117° Southeast 566 651 37,000  Level FlightAware
09:31 35.6160 25.6890 116° Southeast 571 657 37,000  Level FlightAware
09:31 35.5690 25.8050 116° Southeast 571 657 37,000  Level FlightAware
09:32 35.5210 25.9200 117° Southeast 572 658 37,000  Level FlightAware
09:33 35.4660 26.0540 117° Southeast 571 657 37,000  Level FlightAware
09:33 35.4120 26.1810 118° Southeast 571 657 37,000  Level FlightAware
09:34 35.3650 26.2930 117° Southeast 574 661 37,000  Level FlightAware
09:35 35.2970 26.4560 117° Southeast 576 663 37,000  Level FlightAware
09:36 35.2420 26.5880 117° Southeast 580 667 37,000  Level FlightAware
09:36 35.1930 26.7060 117° Southeast 584 672 37,000  Level FlightAware
09:37 35.1380 26.8350 118° Southeast 589 678 37,000  Level FlightAware
09:38 35.0910 26.9450 118° Southeast 591 680 37,000  Level FlightAware
09:39 35.0360 27.0760 117° Southeast 594 684 37,000  Level FlightAware
09:39 34.9790 27.2100 117° Southeast 596 686 37,000  Level FlightAware
09:40 34.9290 27.3260 118° Southeast 596 686 37,000  Level FlightAware
09:41 34.8820 27.4330 118° Southeast 596 686 37,000  Level FlightAware
09:41 34.8290 27.5620 117° Southeast 597 687 37,000  Level FlightAware
09:42 34.7530 27.7340 118° Southeast 597 687 37,000  Level FlightAware
09:43 34.7150 27.8250 117° Southeast 597 687 37,000  Level FlightAware
09:44 34.6500 27.9810 117° Southeast 597 687 37,000  Level FlightAware
09:45 34.6110 28.0720 117° Southeast 597 687 37,000  Level FlightAware
09:46 34.5520 28.2140 117° Southeast 597 687 37,000  Level FlightAware
09:46 34.5130 28.3060 117° Southeast 597 687 37,000  Level FlightAware
09:47 34.4620 28.4280 117° Southeast 597 687 37,000  Level FlightAware
09:48 34.4230 28.5210 117° Southeast 597 687 37,000  Level FlightAware
09:50 34.3112 28.8441 113° Southeast  Level Estimated
09:51 34.2541 29.0080 113° Southeast  Level Estimated
09:52 34.1967 29.1718 113° Southeast  Level Estimated
09:52 34.0190 29.3780 113° Southeast 598 688 37,000  Level FlightAware
09:52 33.9740 29.4780 118° Southeast 598 688 37,000  Level FlightAware
09:53 33.9090 29.6200 119° Southeast 597 687 37,000  Level FlightAware
09:54 33.8490 29.7480 119° Southeast 596 686 37,000  Level FlightAware
09:55 33.7800 29.8990 119° Southeast 596 686 37,000  Level FlightAware
09:56 33.7410 30.0130 112° Southeast 596 686 37,000  Level FlightAware
09:56 33.7290 30.2130 94° East 605 696 37,000  Level FlightAware
09:57 33.7260 30.3940 91° East 604 695 37,000  Level FlightAware
09:58 33.7240 30.5510 91° East 604 695 37,000  Level FlightAware
09:58 33.7220 30.6780 91° East 604 695 37,000  Level FlightAware
09:59 33.7190 30.8150 91° East 603 694 37,000  Level FlightAware
10:00 33.7150 30.9830 92° East 603 694 37,000  Level FlightAware
10:01 33.7110 31.1560 92° East 603 694 37,000  Level FlightAware
10:02 33.7070 31.3140 92° East 604 695 37,000  Level FlightAware
10:02 33.7030 31.4680 92° East 604 695 37,000  Level FlightAware
10:03 33.6990 31.6020 92° East 603 694 37,000  Level FlightAware
10:04 33.6930 31.7520 93° East 601 692 37,000  Level FlightAware
10:04 33.6600 31.8750 108° East 595 685 37,000  Level FlightAware
10:05 33.5780 32.0420 120° Southeast 590 679 37,000  Level FlightAware
10:06 33.5170 32.1580 122° Southeast 590 679 37,000  Level FlightAware
10:07 33.4600 32.2700 121° Southeast 588 677 37,000  Level FlightAware
10:07 33.4050 32.3780 121° Southeast 583 671 37,000 -600 Level FlightAware
10:08 33.3480 32.4900 121° Southeast 556 640 36,200 -1,680 Descending FlightAware
10:09 33.2890 32.6040 122° Southeast 547 629 34,700 -1,980 Descending FlightAware
10:10 33.2220 32.7340 122° Southeast 533 613 32,900 -2,040 Descending FlightAware
10:10 33.1730 32.8290 122° Southeast 528 608 31,600 -2,160 Descending FlightAware
10:11 33.1070 32.9560 122° Southeast 513 590 29,900 -2,100 Descending FlightAware
10:12 33.0510 33.0660 121° Southeast 499 574 28,400 -2,040 Descending FlightAware
10:13 32.9870 33.1910 121° Southeast 482 555 26,600 -1,980 Descending FlightAware
10:14 32.9310 33.3020 121° Southeast 468 539 25,000 -1,980 Descending FlightAware
10:14 32.8780 33.4040 122° Southeast 454 522 23,400 -1,920 Descending FlightAware
10:15 32.8470 33.4650 121° Southeast 447 514 22,400 -1,440 Descending FlightAware
10:16 32.8200 33.5170 122° Southeast 441 507 21,600 -2,100 Descending FlightAware
10:16 32.7540 33.6450 121° Southeast 425 489 19,600 -2,460 Descending FlightAware
10:17 32.7120 33.7250 122° Southeast 415 478 18,300 -1,920 Descending FlightAware
10:18 32.6670 33.8110 122° Southeast 402 463 16,900 -1,860 Descending FlightAware
10:19 32.6270 33.8890 121° Southeast 389 448 15,700 -1,800 Descending FlightAware
10:19 32.5860 33.9670 122° Southeast 375 432 14,400 -1,740 Descending FlightAware
10:20 32.5500 34.0350 122° Southeast 365 420 13,300 -1,740 Descending FlightAware
10:21 32.5130 34.1080 121° Southeast 356 410 12,100 -1,740 Descending FlightAware
10:21 32.4760 34.1700 125° Southeast 348 400 11,000 -1,380 Descending FlightAware
10:22 32.4270 34.2290 135° Southeast 329 379 10,200 -1,020 Descending FlightAware
10:23 32.3660 34.3020 135° Southeast 301 346 9,300 -1,020 Descending FlightAware
10:23 32.3430 34.3270 137° Southeast 299 344 8,800 -960 Descending FlightAware
10:24 32.3410 34.3310 121° Southeast 292 336 8,400 -900 Descending FlightAware
10:24 32.2950 34.3840 136° Southeast 291 335 8,000 -1,080 Descending FlightAware
10:25 32.2610 34.4230 136° Southeast 285 328 7,500 -540 Descending FlightAware
10:25 32.2350 34.4540 135° Southeast 285 328 7,400 -840 Descending FlightAware
10:26 32.2220 34.4760 125° Southeast 284 327 6,800 -1,740 Descending FlightAware
10:26 32.2070 34.5060 121° Southeast 282 325 6,300 -1,200 Descending FlightAware
10:26 32.1910 34.5360 122° Southeast 277 319 6,000 -1,020 Descending FlightAware
10:27 32.1720 34.5730 121° Southeast 272 313 5,500 -1,020 Descending FlightAware
10:27 32.1550 34.6040 123° Southeast 264 304 5,100 -600 Descending FlightAware
10:28 32.1360 34.6410 121° Southeast 265 305 5,000 -120 Descending FlightAware
10:28 32.1160 34.6760 124° Southeast 265 305 5,000  Level FlightAware
10:29 32.0940 34.7150 124° Southeast 267 307 5,000  Level FlightAware
10:29 32.0900 34.7230 121° Southeast 265 305 5,000  Level FlightAware
10:29 32.0740 34.7510 124° Southeast 258 297 5,000  Level FlightAware
10:30 32.0680 34.7640 119° Southeast 244 281 5,000 -180 Level FlightAware
10:30 32.0460 34.7910 134° Southeast 224 258 4,900 -360 Descending FlightAware
10:30 32.0280 34.8120 135° Southeast 220 253 4,700 -480 Descending FlightAware
10:31 32.0070 34.8360 136° Southeast 219 252 4,500 -960 Descending FlightAware
10:31 31.9900 34.8550 137° Southeast 224 258 3,900 -1,620 Descending FlightAware
10:32 31.9780 34.9180 103° East 197 227 2,300 -1,140 Descending FlightAware
10:33 31.9830 34.9430 77° East 197 227 2,300  Level FlightAware
10:35 32.0095 34.8769 295° West  Level Estimated
10:36 32.0095 34.8769 270° West  Level Estimated